Time,TemperatureF,DewpointF,PressureIn,WindDirection,WindDirectionDegrees,WindSpeedMPH,WindSpeedGustMPH,Humidity,HourlyPrecipIn,Conditions,Clouds,dailyrainin,SoftwareType,DateUTC
2014-12-18 00:03:00,32.9,31.9,29.77,NNE,20,0.0,3.0,96,0.00,,,0.00,Wunderground v.1.15,2014-12-18 05:03:00,
2014-12-18 00:09:00,32.9,31.9,29.77,SW,228,0.0,3.0,96,0.00,,,0.00,Wunderground v.1.15,2014-12-18 05:09:00,
2014-12-18 00:15:00,32.8,31.8,29.77,SW,231,2.0,2.0,96,0.00,,,0.00,Wunderground v.1.15,2014-12-18 05:15:00,
2014-12-18 00:21:00,32.9,31.9,29.77,WSW,242,0.0,1.0,96,0.00,,,0.00,Wunderground v.1.15,2014-12-18 05:21:00,
2014-12-18 00:26:00,32.8,31.8,29.77,SW,217,0.0,2.0,96,0.00,,,0.00,Wunderground v.1.15,2014-12-18 05:26:00,
2014-12-18 00:32:00,32.8,31.8,29.77,SW,218,0.0,0.0,96,0.00,,,0.00,Wunderground v.1.15,2014-12-18 05:32:00,
2014-12-18 00:38:00,32.8,31.8,29.76,SW,236,4.0,4.0,96,0.00,,,0.00,Wunderground v.1.15,2014-12-18 05:38:00,
2014-12-18 00:44:00,32.9,31.9,29.76,West,280,0.0,1.0,96,0.00,,,0.00,Wunderground v.1.15,2014-12-18 05:44:00,
2014-12-18 00:49:00,32.8,31.8,29.76,West,259,0.0,1.0,96,0.00,,,0.00,Wunderground v.1.15,2014-12-18 05:49:00,
2014-12-18 00:55:00,32.8,31.8,29.76,West,276,2.0,2.0,96,0.00,,,0.00,Wunderground v.1.15,2014-12-18 05:55:00,
2014-12-18 01:01:00,32.8,31.8,29.76,South,176,1.0,1.0,96,0.00,,,0.00,Wunderground v.1.15,2014-12-18 06:01:00,
2014-12-18 01:07:00,32.8,31.8,29.76,WSW,253,1.0,1.0,96,0.00,,,0.00,Wunderground v.1.15,2014-12-18 06:07:00,
2014-12-18 01:12:00,32.8,31.5,29.76,NW,322,0.0,2.0,95,0.00,,,0.00,Wunderground v.1.15,2014-12-18 06:12:00,
2014-12-18 01:18:00,32.9,31.6,29.75,SE,136,0.0,2.0,95,0.00,,,0.00,Wunderground v.1.15,2014-12-18 06:18:00,
2014-12-18 01:24:00,32.8,31.5,29.76,SW,236,1.0,1.0,95,0.00,,,0.00,Wunderground v.1.15,2014-12-18 06:24:00,
2014-12-18 01:29:00,32.8,31.5,29.76,SW,226,0.0,1.0,95,0.00,,,0.00,Wunderground v.1.15,2014-12-18 06:29:00,
2014-12-18 01:35:00,32.8,31.5,29.76,ESE,120,1.0,3.0,95,0.00,,,0.00,Wunderground v.1.15,2014-12-18 06:35:00,
2014-12-18 01:41:00,32.8,31.5,29.76,WNW,302,1.0,1.0,95,0.00,,,0.00,Wunderground v.1.15,2014-12-18 06:41:00,
2014-12-18 01:47:00,32.7,31.4,29.76,South,175,0.0,1.0,95,0.00,,,0.00,Wunderground v.1.15,2014-12-18 06:47:00,
2014-12-18 01:52:00,32.7,31.4,29.76,West,278,0.0,1.0,95,0.00,,,0.00,Wunderground v.1.15,2014-12-18 06:52:00,
2014-12-18 01:58:00,32.6,31.3,29.76,West,262,0.0,3.0,95,0.00,,,0.00,Wunderground v.1.15,2014-12-18 06:58:00,
2014-12-18 02:04:00,32.5,31.5,29.76,SW,223,2.0,2.0,96,0.00,,,0.00,Wunderground v.1.15,2014-12-18 07:04:00,
2014-12-18 02:09:00,32.5,31.5,29.76,WSW,255,2.0,3.0,96,0.00,,,0.00,Wunderground v.1.15,2014-12-18 07:09:00,
2014-12-18 02:14:00,32.5,31.5,29.76,WSW,243,0.0,2.0,96,0.00,,,0.00,Wunderground v.1.15,2014-12-18 07:14:00,
2014-12-18 02:19:00,32.4,31.4,29.77,WSW,252,0.0,4.0,96,0.00,,,0.00,Wunderground v.1.15,2014-12-18 07:19:00,
2014-12-18 02:24:00,32.4,31.4,29.77,SW,224,2.0,4.0,96,0.00,,,0.00,Wunderground v.1.15,2014-12-18 07:24:00,
2014-12-18 02:29:00,32.4,31.4,29.77,South,174,1.0,4.0,96,0.00,,,0.00,Wunderground v.1.15,2014-12-18 07:29:00,
2014-12-18 02:34:00,32.4,31.4,29.77,ESE,105,1.0,1.0,96,0.00,,,0.00,Wunderground v.1.15,2014-12-18 07:34:00,
2014-12-18 02:39:00,32.3,31.3,29.77,ESE,114,0.0,2.0,96,0.00,,,0.00,Wunderground v.1.15,2014-12-18 07:39:00,
2014-12-18 02:44:00,32.3,31.3,29.77,SW,228,0.0,2.0,96,0.00,,,0.00,Wunderground v.1.15,2014-12-18 07:44:00,
2014-12-18 02:49:00,32.3,31.3,29.77,South,176,0.0,2.0,96,0.00,,,0.00,Wunderground v.1.15,2014-12-18 07:49:00,
2014-12-18 02:54:00,32.3,31.3,29.77,SW,228,1.0,4.0,96,0.00,,,0.00,Wunderground v.1.15,2014-12-18 07:54:00,
2014-12-18 02:59:00,32.3,31.3,29.77,West,263,0.0,4.0,96,0.00,,,0.00,Wunderground v.1.15,2014-12-18 07:59:00,
2014-12-18 03:04:00,32.3,31.3,29.77,SW,218,0.0,3.0,96,0.00,,,0.00,Wunderground v.1.15,2014-12-18 08:04:00,
2014-12-18 03:09:00,32.2,31.2,29.77,SE,145,0.0,3.0,96,0.00,,,0.00,Wunderground v.1.15,2014-12-18 08:09:00,
2014-12-18 03:14:00,32.3,31.3,29.77,WNW,293,0.0,1.0,96,0.00,,,0.00,Wunderground v.1.15,2014-12-18 08:14:00,
2014-12-18 03:19:00,32.2,31.2,29.76,South,174,0.0,1.0,96,0.00,,,0.00,Wunderground v.1.15,2014-12-18 08:19:00,
2014-12-18 03:24:00,32.2,31.2,29.76,SSW,195,0.0,1.0,96,0.00,,,0.00,Wunderground v.1.15,2014-12-18 08:24:00,
2014-12-18 03:29:00,32.1,31.1,29.76,South,176,0.0,1.0,96,0.00,,,0.00,Wunderground v.1.15,2014-12-18 08:29:00,
2014-12-18 03:34:00,32.1,31.1,29.76,WSW,242,1.0,3.0,96,0.00,,,0.00,Wunderground v.1.15,2014-12-18 08:34:00,
2014-12-18 03:39:00,32.1,31.1,29.76,WSW,257,1.0,3.0,96,0.00,,,0.00,Wunderground v.1.15,2014-12-18 08:39:00,
2014-12-18 03:44:00,32.1,31.1,29.76,SSW,212,0.0,4.0,96,0.00,,,0.00,Wunderground v.1.15,2014-12-18 08:44:00,
2014-12-18 03:49:00,32.1,31.1,29.76,South,177,0.0,4.0,96,0.00,,,0.00,Wunderground v.1.15,2014-12-18 08:49:00,
2014-12-18 03:54:00,32.0,31.0,29.76,South,174,0.0,3.0,96,0.00,,,0.00,Wunderground v.1.15,2014-12-18 08:54:00,
2014-12-18 03:59:00,32.0,31.0,29.76,West,273,0.0,3.0,96,0.00,,,0.00,Wunderground v.1.15,2014-12-18 08:59:00,
2014-12-18 04:04:00,32.0,31.0,29.76,West,262,0.0,2.0,96,0.00,,,0.00,Wunderground v.1.15,2014-12-18 09:04:00,
2014-12-18 04:09:00,31.9,30.9,29.76,WSW,254,2.0,2.0,96,0.00,,,0.00,Wunderground v.1.15,2014-12-18 09:09:00,
2014-12-18 04:14:00,31.9,30.9,29.76,West,280,1.0,2.0,96,0.00,,,0.00,Wunderground v.1.15,2014-12-18 09:14:00,
2014-12-18 04:19:00,31.9,30.9,29.76,South,176,0.0,2.0,96,0.00,,,0.00,Wunderground v.1.15,2014-12-18 09:19:00,
2014-12-18 04:24:00,31.9,30.9,29.76,NW,304,0.0,4.0,96,0.00,,,0.00,Wunderground v.1.15,2014-12-18 09:24:00,
2014-12-18 04:29:00,31.9,30.9,29.76,SSW,193,0.0,4.0,96,0.00,,,0.00,Wunderground v.1.15,2014-12-18 09:29:00,
2014-12-18 04:34:00,31.8,30.8,29.76,West,276,1.0,4.0,96,0.00,,,0.00,Wunderground v.1.15,2014-12-18 09:34:00,
2014-12-18 04:39:00,31.8,30.8,29.76,South,176,0.0,4.0,96,0.00,,,0.00,Wunderground v.1.15,2014-12-18 09:39:00,
2014-12-18 04:44:00,31.9,30.9,29.76,South,176,1.0,1.0,96,0.00,,,0.00,Wunderground v.1.15,2014-12-18 09:44:00,
2014-12-18 04:49:00,31.8,30.8,29.76,WSW,242,2.0,3.0,96,0.00,,,0.00,Wunderground v.1.15,2014-12-18 09:49:00,
2014-12-18 04:54:00,31.8,30.8,29.77,South,175,0.0,1.0,96,0.00,,,0.00,Wunderground v.1.15,2014-12-18 09:54:00,
2014-12-18 04:59:00,31.8,30.8,29.77,SW,232,0.0,2.0,96,0.00,,,0.00,Wunderground v.1.15,2014-12-18 09:59:00,
2014-12-18 05:04:00,31.8,30.8,29.76,WSW,242,4.0,4.0,96,0.00,,,0.00,Wunderground v.1.15,2014-12-18 10:04:00,
2014-12-18 05:09:00,31.8,30.8,29.77,South,188,0.0,4.0,96,0.00,,,0.00,Wunderground v.1.15,2014-12-18 10:09:00,
2014-12-18 05:14:00,31.8,30.8,29.76,East,100,0.0,1.0,96,0.00,,,0.00,Wunderground v.1.15,2014-12-18 10:14:00,
2014-12-18 05:19:00,31.7,30.7,29.77,South,176,0.0,1.0,96,0.00,,,0.00,Wunderground v.1.15,2014-12-18 10:19:00,
2014-12-18 05:24:00,31.7,30.7,29.77,South,176,0.0,1.0,96,0.00,,,0.00,Wunderground v.1.15,2014-12-18 10:24:00,
2014-12-18 05:29:00,31.7,30.7,29.77,SW,224,0.0,3.0,96,0.00,,,0.00,Wunderground v.1.15,2014-12-18 10:29:00,
2014-12-18 05:34:00,31.6,30.6,29.77,South,176,0.0,4.0,96,0.00,,,0.00,Wunderground v.1.15,2014-12-18 10:34:00,
2014-12-18 05:39:00,31.6,30.6,29.77,WSW,248,3.0,4.0,96,0.00,,,0.00,Wunderground v.1.15,2014-12-18 10:39:00,
2014-12-18 05:44:00,31.7,30.7,29.77,SW,228,0.0,2.0,96,0.00,,,0.00,Wunderground v.1.15,2014-12-18 10:44:00,
2014-12-18 05:49:00,31.7,30.7,29.77,SSE,163,1.0,2.0,96,0.00,,,0.00,Wunderground v.1.15,2014-12-18 10:49:00,
2014-12-18 05:54:00,31.7,30.7,29.77,WNW,287,1.0,3.0,96,0.00,,,0.00,Wunderground v.1.15,2014-12-18 10:54:00,
2014-12-18 05:59:00,31.7,30.7,29.77,West,266,1.0,3.0,96,0.00,,,0.00,Wunderground v.1.15,2014-12-18 10:59:00,
2014-12-18 06:04:00,31.6,30.6,29.77,SE,136,0.0,2.0,96,0.00,,,0.00,Wunderground v.1.15,2014-12-18 11:04:00,
2014-12-18 06:09:00,31.6,30.6,29.78,SW,232,1.0,2.0,96,0.00,,,0.00,Wunderground v.1.15,2014-12-18 11:09:00,
2014-12-18 06:14:00,31.6,30.6,29.78,South,175,0.0,4.0,96,0.00,,,0.00,Wunderground v.1.15,2014-12-18 11:14:00,
2014-12-18 06:19:00,31.6,30.6,29.78,South,174,0.0,4.0,96,0.00,,,0.00,Wunderground v.1.15,2014-12-18 11:19:00,
2014-12-18 06:24:00,31.6,30.6,29.78,SW,229,0.0,1.0,96,0.00,,,0.00,Wunderground v.1.15,2014-12-18 11:24:00,
2014-12-18 06:29:00,31.5,30.5,29.78,South,174,0.0,5.0,96,0.00,,,0.00,Wunderground v.1.15,2014-12-18 11:29:00,
2014-12-18 06:34:00,31.5,30.5,29.78,WSW,257,1.0,3.0,96,0.00,,,0.00,Wunderground v.1.15,2014-12-18 11:34:00,
2014-12-18 06:39:00,31.5,30.5,29.78,SW,215,4.0,4.0,96,0.00,,,0.00,Wunderground v.1.15,2014-12-18 11:39:00,
2014-12-18 06:44:00,31.5,30.5,29.78,West,274,0.0,4.0,96,0.00,,,0.00,Wunderground v.1.15,2014-12-18 11:44:00,
2014-12-18 06:49:00,31.4,30.4,29.78,WNW,283,2.0,4.0,96,0.00,,,0.00,Wunderground v.1.15,2014-12-18 11:49:00,
2014-12-18 06:54:00,31.4,30.4,29.78,WSW,252,2.0,3.0,96,0.00,,,0.00,Wunderground v.1.15,2014-12-18 11:54:00,
2014-12-18 06:59:00,31.4,30.1,29.78,WSW,250,0.0,6.0,95,0.00,,,0.00,Wunderground v.1.15,2014-12-18 11:59:00,
2014-12-18 07:04:00,31.4,30.1,29.79,WSW,252,0.0,1.0,95,0.00,,,0.00,Wunderground v.1.15,2014-12-18 12:04:00,
2014-12-18 07:09:00,31.4,30.1,29.79,South,176,0.0,2.0,95,0.00,,,0.00,Wunderground v.1.15,2014-12-18 12:09:00,
2014-12-18 07:14:00,31.4,30.1,29.79,SW,215,2.0,2.0,95,0.00,,,0.00,Wunderground v.1.15,2014-12-18 12:14:00,
2014-12-18 07:19:00,31.4,30.1,29.79,South,176,0.0,3.0,95,0.00,,,0.00,Wunderground v.1.15,2014-12-18 12:19:00,
2014-12-18 07:24:00,31.5,30.2,29.80,South,176,0.0,1.0,95,0.00,,,0.00,Wunderground v.1.15,2014-12-18 12:24:00,
2014-12-18 07:29:00,31.4,30.1,29.80,South,176,0.0,1.0,95,0.00,,,0.00,Wunderground v.1.15,2014-12-18 12:29:00,
2014-12-18 07:34:00,31.4,30.1,29.80,SSW,211,1.0,3.0,95,0.00,,,0.00,Wunderground v.1.15,2014-12-18 12:34:00,
2014-12-18 07:39:00,31.4,30.1,29.80,South,176,0.0,3.0,95,0.00,,,0.00,Wunderground v.1.15,2014-12-18 12:39:00,
2014-12-18 07:44:00,31.4,30.1,29.80,SE,146,1.0,1.0,95,0.00,,,0.00,Wunderground v.1.15,2014-12-18 12:44:00,
2014-12-18 07:49:00,31.5,30.2,29.80,South,175,0.0,1.0,95,0.00,,,0.00,Wunderground v.1.15,2014-12-18 12:49:00,
2014-12-18 07:54:00,31.5,30.2,29.81,SE,124,0.0,2.0,95,0.00,,,0.00,Wunderground v.1.15,2014-12-18 12:54:00,
2014-12-18 07:59:00,31.6,30.3,29.81,South,175,0.0,2.0,95,0.00,,,0.00,Wunderground v.1.15,2014-12-18 12:59:00,
2014-12-18 08:04:00,31.7,30.4,29.81,East,84,0.0,2.0,95,0.00,,,0.00,Wunderground v.1.15,2014-12-18 13:04:00,
2014-12-18 08:09:00,31.8,30.5,29.81,South,176,0.0,2.0,95,0.00,,,0.00,Wunderground v.1.15,2014-12-18 13:09:00,
2014-12-18 08:14:00,31.8,30.5,29.81,WSW,257,0.0,4.0,95,0.00,,,0.00,Wunderground v.1.15,2014-12-18 13:14:00,
2014-12-18 08:19:00,32.0,30.5,29.81,South,176,1.0,4.0,94,0.00,,,0.00,Wunderground v.1.15,2014-12-18 13:19:00,
2014-12-18 08:24:00,32.2,30.7,29.81,SW,235,0.0,2.0,94,0.00,,,0.00,Wunderground v.1.15,2014-12-18 13:24:00,
2014-12-18 08:29:00,32.3,30.8,29.81,WSW,257,1.0,2.0,94,0.00,,,0.00,Wunderground v.1.15,2014-12-18 13:29:00,
2014-12-18 08:34:00,32.4,30.6,29.81,South,188,1.0,4.0,93,0.00,,,0.00,Wunderground v.1.15,2014-12-18 13:34:00,
2014-12-18 08:39:00,32.4,30.6,29.81,South,174,1.0,4.0,93,0.00,,,0.00,Wunderground v.1.15,2014-12-18 13:39:00,
2014-12-18 08:44:00,32.5,30.4,29.81,South,174,0.0,5.0,92,0.00,,,0.00,Wunderground v.1.15,2014-12-18 13:44:00,
2014-12-18 08:49:00,32.5,30.4,29.81,WSW,249,0.0,5.0,92,0.00,,,0.00,Wunderground v.1.15,2014-12-18 13:49:00,
2014-12-18 08:54:00,32.6,30.5,29.81,SW,232,1.0,3.0,92,0.00,,,0.00,Wunderground v.1.15,2014-12-18 13:54:00,
2014-12-18 08:59:00,32.7,30.6,29.81,South,174,1.0,3.0,92,0.00,,,0.00,Wunderground v.1.15,2014-12-18 13:59:00,
2014-12-18 09:04:00,32.8,30.7,29.82,WSW,245,2.0,3.0,92,0.00,,,0.00,Wunderground v.1.15,2014-12-18 14:04:00,
2014-12-18 09:09:00,32.8,30.7,29.82,South,175,0.0,1.0,92,0.00,,,0.00,Wunderground v.1.15,2014-12-18 14:09:00,
2014-12-18 09:14:00,32.8,30.5,29.82,East,85,1.0,3.0,91,0.00,,,0.00,Wunderground v.1.15,2014-12-18 14:14:00,
2014-12-18 09:19:00,32.8,30.5,29.83,SE,146,0.0,1.0,91,0.00,,,0.00,Wunderground v.1.15,2014-12-18 14:19:00,
2014-12-18 09:24:00,32.9,30.6,29.83,SE,143,3.0,3.0,91,0.00,,,0.00,Wunderground v.1.15,2014-12-18 14:24:00,
2014-12-18 09:29:00,32.9,30.6,29.84,SSW,197,1.0,4.0,91,0.00,,,0.00,Wunderground v.1.15,2014-12-18 14:29:00,
2014-12-18 09:34:00,33.0,30.7,29.84,SW,229,1.0,3.0,91,0.00,,,0.00,Wunderground v.1.15,2014-12-18 14:34:00,
2014-12-18 09:39:00,33.2,30.9,29.84,SE,141,1.0,1.0,91,0.00,,,0.00,Wunderground v.1.15,2014-12-18 14:39:00,
2014-12-18 09:44:00,33.1,30.5,29.84,SW,214,0.0,3.0,90,0.00,,,0.00,Wunderground v.1.15,2014-12-18 14:44:00,
2014-12-18 09:49:00,33.2,30.9,29.85,SSW,212,0.0,1.0,91,0.00,,,0.00,Wunderground v.1.15,2014-12-18 14:49:00,
2014-12-18 09:54:00,33.2,30.9,29.85,SW,221,2.0,3.0,91,0.00,,,0.00,Wunderground v.1.15,2014-12-18 14:54:00,
2014-12-18 09:59:00,33.0,30.7,29.85,WSW,249,1.0,1.0,91,0.00,,,0.00,Wunderground v.1.15,2014-12-18 14:59:00,
2014-12-18 10:04:00,32.9,30.8,29.85,South,191,0.0,1.0,92,0.00,,,0.00,Wunderground v.1.15,2014-12-18 15:04:00,
2014-12-18 10:09:00,33.0,30.7,29.85,WSW,257,2.0,4.0,91,0.00,,,0.00,Wunderground v.1.15,2014-12-18 15:09:00,
2014-12-18 10:14:00,33.0,30.7,29.85,WSW,242,0.0,4.0,91,0.00,,,0.00,Wunderground v.1.15,2014-12-18 15:14:00,
2014-12-18 10:19:00,33.1,31.0,29.85,WSW,245,1.0,4.0,92,0.00,,,0.00,Wunderground v.1.15,2014-12-18 15:19:00,
2014-12-18 10:24:00,33.2,31.1,29.85,SW,217,2.0,2.0,92,0.00,,,0.00,Wunderground v.1.15,2014-12-18 15:24:00,
2014-12-18 10:29:00,33.3,31.0,29.85,SSW,212,0.0,5.0,91,0.00,,,0.00,Wunderground v.1.15,2014-12-18 15:29:00,
2014-12-18 10:34:00,33.4,31.1,29.85,SW,228,3.0,3.0,91,0.00,,,0.00,Wunderground v.1.15,2014-12-18 15:34:00,
2014-12-18 10:39:00,33.3,30.7,29.84,WSW,249,1.0,6.0,90,0.00,,,0.00,Wunderground v.1.15,2014-12-18 15:39:00,
2014-12-18 10:44:00,33.4,30.8,29.84,SSW,212,0.0,2.0,90,0.00,,,0.00,Wunderground v.1.15,2014-12-18 15:44:00,
2014-12-18 10:49:00,33.5,30.9,29.84,SW,224,0.0,1.0,90,0.00,,,0.00,Wunderground v.1.15,2014-12-18 15:49:00,
2014-12-18 10:54:00,33.5,30.9,29.84,SSW,208,1.0,4.0,90,0.00,,,0.00,Wunderground v.1.15,2014-12-18 15:54:00,
2014-12-18 10:59:00,33.5,30.9,29.84,SW,232,1.0,1.0,90,0.00,,,0.00,Wunderground v.1.15,2014-12-18 15:59:00,
2014-12-18 11:04:00,33.5,31.2,29.84,West,274,1.0,3.0,91,0.00,,,0.00,Wunderground v.1.15,2014-12-18 16:04:00,
2014-12-18 11:09:00,33.3,30.7,29.84,South,174,1.0,1.0,90,0.00,,,0.00,Wunderground v.1.15,2014-12-18 16:09:00,
2014-12-18 11:14:00,33.1,30.5,29.83,SW,225,2.0,5.0,90,0.00,,,0.00,Wunderground v.1.15,2014-12-18 16:14:00,
2014-12-18 11:19:00,33.1,30.5,29.83,West,262,2.0,3.0,90,0.00,,,0.00,Wunderground v.1.15,2014-12-18 16:19:00,
2014-12-18 11:25:00,33.1,30.5,29.83,West,265,1.0,3.0,90,0.00,,,0.00,Wunderground v.1.15,2014-12-18 16:25:00,
2014-12-18 11:30:00,33.1,30.8,29.83,WSW,249,2.0,2.0,91,0.00,,,0.00,Wunderground v.1.15,2014-12-18 16:30:00,
2014-12-18 11:35:00,33.1,30.5,29.83,SE,143,0.0,2.0,90,0.00,,,0.01,Wunderground v.1.15,2014-12-18 16:35:00,
2014-12-18 11:40:00,33.2,30.9,29.83,WSW,241,2.0,3.0,91,0.00,,,0.01,Wunderground v.1.15,2014-12-18 16:40:00,
2014-12-18 11:45:00,33.1,30.5,29.83,WSW,246,0.0,5.0,90,0.00,,,0.01,Wunderground v.1.15,2014-12-18 16:45:00,
2014-12-18 11:50:00,33.1,30.5,29.83,WNW,295,2.0,2.0,90,0.00,,,0.01,Wunderground v.1.15,2014-12-18 16:50:00,
2014-12-18 11:55:00,33.2,30.9,29.83,WSW,240,0.0,3.0,91,0.00,,,0.01,Wunderground v.1.15,2014-12-18 16:55:00,
2014-12-18 12:00:00,33.2,30.6,29.83,West,270,1.0,2.0,90,0.00,,,0.01,Wunderground v.1.15,2014-12-18 17:00:00,
2014-12-18 12:05:00,33.4,30.8,29.83,South,191,1.0,3.0,90,0.00,,,0.01,Wunderground v.1.15,2014-12-18 17:05:00,
2014-12-18 12:10:00,33.5,30.6,29.83,SSW,207,1.0,1.0,89,0.00,,,0.01,Wunderground v.1.15,2014-12-18 17:10:00,
2014-12-18 12:15:00,33.6,30.7,29.83,SSE,165,2.0,6.0,89,0.00,,,0.01,Wunderground v.1.15,2014-12-18 17:15:00,
2014-12-18 12:20:00,33.6,30.7,29.83,SW,235,0.0,1.0,89,0.00,,,0.01,Wunderground v.1.15,2014-12-18 17:20:00,
2014-12-18 12:25:00,33.8,30.9,29.82,WSW,255,1.0,3.0,89,0.00,,,0.01,Wunderground v.1.15,2014-12-18 17:25:00,
2014-12-18 12:30:00,34.0,30.8,29.82,ESE,108,7.0,7.0,88,0.00,,,0.01,Wunderground v.1.15,2014-12-18 17:30:00,
2014-12-18 12:35:00,34.5,31.6,29.82,SSW,212,0.0,8.0,89,0.00,,,0.01,Wunderground v.1.15,2014-12-18 17:35:00,
2014-12-18 12:40:00,34.8,31.6,29.81,SSW,197,1.0,2.0,88,0.00,,,0.01,Wunderground v.1.15,2014-12-18 17:40:00,
2014-12-18 12:45:00,34.9,31.1,29.81,WSW,249,4.0,8.0,86,0.00,,,0.01,Wunderground v.1.15,2014-12-18 17:45:00,
2014-12-18 12:50:00,35.5,31.7,29.81,WSW,249,2.0,3.0,86,0.00,,,0.01,Wunderground v.1.15,2014-12-18 17:50:00,
2014-12-18 12:55:00,35.9,31.8,29.81,SW,224,4.0,6.0,85,0.00,,,0.01,Wunderground v.1.15,2014-12-18 17:55:00,
2014-12-18 13:01:00,35.3,30.9,29.81,SW,226,4.0,4.0,84,0.00,,,0.01,Wunderground v.1.15,2014-12-18 18:01:00,
2014-12-18 13:06:00,34.8,30.8,29.81,SSE,153,1.0,5.0,85,0.00,,,0.01,Wunderground v.1.15,2014-12-18 18:06:00,
2014-12-18 13:11:00,34.6,30.8,29.81,WSW,243,4.0,4.0,86,0.00,,,0.01,Wunderground v.1.15,2014-12-18 18:11:00,
2014-12-18 13:16:00,34.4,30.6,29.81,West,263,3.0,4.0,86,0.00,,,0.01,Wunderground v.1.15,2014-12-18 18:16:00,
2014-12-18 13:21:00,34.2,30.4,29.81,SSE,159,1.0,2.0,86,0.00,,,0.01,Wunderground v.1.15,2014-12-18 18:21:00,
2014-12-18 13:26:00,34.2,30.4,29.81,SE,125,1.0,5.0,86,0.00,,,0.01,Wunderground v.1.15,2014-12-18 18:26:00,
2014-12-18 13:31:00,34.1,30.4,29.81,West,265,0.0,2.0,86,0.00,,,0.01,Wunderground v.1.15,2014-12-18 18:31:00,
2014-12-18 13:36:00,34.0,30.5,29.82,South,187,1.0,2.0,87,0.00,,,0.01,Wunderground v.1.15,2014-12-18 18:36:00,
2014-12-18 13:41:00,34.1,30.9,29.81,SW,228,4.0,4.0,88,0.00,,,0.01,Wunderground v.1.15,2014-12-18 18:41:00,
2014-12-18 13:46:00,34.0,30.5,29.82,WSW,252,3.0,6.0,87,0.00,,,0.01,Wunderground v.1.15,2014-12-18 18:46:00,
2014-12-18 13:51:00,33.9,30.2,29.82,West,262,0.0,2.0,86,0.00,,,0.01,Wunderground v.1.15,2014-12-18 18:51:00,
2014-12-18 13:56:00,33.8,30.1,29.83,ENE,76,0.0,3.0,86,0.00,,,0.01,Wunderground v.1.15,2014-12-18 18:56:00,
2014-12-18 14:01:00,33.8,30.1,29.83,ESE,105,2.0,4.0,86,0.00,,,0.01,Wunderground v.1.15,2014-12-18 19:01:00,
2014-12-18 14:06:00,33.5,29.8,29.83,SSW,211,4.0,9.0,86,0.00,,,0.01,Wunderground v.1.15,2014-12-18 19:06:00,
2014-12-18 14:11:00,33.4,30.2,29.83,ESE,103,1.0,2.0,88,0.00,,,0.01,Wunderground v.1.15,2014-12-18 19:11:00,
2014-12-18 14:16:00,33.4,30.2,29.83,South,176,1.0,3.0,88,0.00,,,0.01,Wunderground v.1.15,2014-12-18 19:16:00,
2014-12-18 14:21:00,33.3,30.1,29.83,SE,135,0.0,1.0,88,0.00,,,0.01,Wunderground v.1.15,2014-12-18 19:21:00,
2014-12-18 14:26:00,33.3,30.1,29.83,ENE,65,2.0,3.0,88,0.00,,,0.01,Wunderground v.1.15,2014-12-18 19:26:00,
2014-12-18 14:31:00,33.3,29.8,29.84,SW,222,3.0,4.0,87,0.00,,,0.01,Wunderground v.1.15,2014-12-18 19:31:00,
2014-12-18 14:36:00,33.3,30.1,29.84,South,174,2.0,7.0,88,0.00,,,0.01,Wunderground v.1.15,2014-12-18 19:36:00,
2014-12-18 14:41:00,33.2,29.5,29.84,SW,232,2.0,4.0,86,0.00,,,0.01,Wunderground v.1.15,2014-12-18 19:41:00,
2014-12-18 14:46:00,33.2,29.8,29.84,South,184,1.0,5.0,87,0.00,,,0.01,Wunderground v.1.15,2014-12-18 19:46:00,
2014-12-18 14:51:00,33.1,29.7,29.84,South,174,0.0,5.0,87,0.00,,,0.01,Wunderground v.1.15,2014-12-18 19:51:00,
2014-12-18 14:56:00,33.1,29.7,29.84,South,173,1.0,5.0,87,0.00,,,0.01,Wunderground v.1.15,2014-12-18 19:56:00,
2014-12-18 15:01:00,33.0,29.8,29.85,NE,47,0.0,2.0,88,0.00,,,0.01,Wunderground v.1.15,2014-12-18 20:01:00,
2014-12-18 15:06:00,32.9,29.7,29.85,WSW,248,0.0,3.0,88,0.00,,,0.01,Wunderground v.1.15,2014-12-18 20:06:00,
2014-12-18 15:11:00,32.8,29.6,29.85,WSW,246,2.0,9.0,88,0.00,,,0.01,Wunderground v.1.15,2014-12-18 20:11:00,
2014-12-18 15:16:00,32.8,29.6,29.85,East,86,0.0,9.0,88,0.00,,,0.01,Wunderground v.1.15,2014-12-18 20:16:00,
2014-12-18 15:21:00,32.8,29.6,29.85,ESE,123,0.0,1.0,88,0.00,,,0.01,Wunderground v.1.15,2014-12-18 20:21:00,
2014-12-18 15:26:00,32.8,29.6,29.85,SSE,149,0.0,1.0,88,0.00,,,0.01,Wunderground v.1.15,2014-12-18 20:26:00,
2014-12-18 15:31:00,32.7,29.5,29.85,South,175,0.0,2.0,88,0.00,,,0.01,Wunderground v.1.15,2014-12-18 20:31:00,
2014-12-18 15:36:00,32.7,29.3,29.85,SW,236,1.0,4.0,87,0.00,,,0.01,Wunderground v.1.15,2014-12-18 20:36:00,
2014-12-18 15:41:00,32.6,29.4,29.85,West,259,1.0,4.0,88,0.00,,,0.01,Wunderground v.1.15,2014-12-18 20:41:00,
2014-12-18 15:46:00,32.5,29.1,29.85,South,190,2.0,4.0,87,0.00,,,0.01,Wunderground v.1.15,2014-12-18 20:46:00,
2014-12-18 15:51:00,32.5,29.1,29.85,South,174,2.0,6.0,87,0.00,,,0.01,Wunderground v.1.15,2014-12-18 20:51:00,
2014-12-18 15:56:00,32.5,29.1,29.86,South,175,1.0,6.0,87,0.00,,,0.01,Wunderground v.1.15,2014-12-18 20:56:00,
2014-12-18 16:01:00,32.4,29.0,29.86,South,175,0.0,1.0,87,0.00,,,0.01,Wunderground v.1.15,2014-12-18 21:01:00,
2014-12-18 16:06:00,32.4,29.0,29.86,WSW,248,1.0,6.0,87,0.00,,,0.01,Wunderground v.1.15,2014-12-18 21:06:00,
2014-12-18 16:11:00,32.3,28.9,29.86,SW,215,1.0,1.0,87,0.00,,,0.01,Wunderground v.1.15,2014-12-18 21:11:00,
2014-12-18 16:16:00,32.3,28.9,29.86,South,176,0.0,2.0,87,0.00,,,0.01,Wunderground v.1.15,2014-12-18 21:16:00,
2014-12-18 16:21:00,32.3,29.1,29.86,SSW,208,0.0,3.0,88,0.00,,,0.01,Wunderground v.1.15,2014-12-18 21:21:00,
2014-12-18 16:26:00,32.2,29.0,29.86,East,96,0.0,3.0,88,0.00,,,0.01,Wunderground v.1.15,2014-12-18 21:26:00,
2014-12-18 16:31:00,32.1,28.9,29.86,SW,222,1.0,3.0,88,0.00,,,0.01,Wunderground v.1.15,2014-12-18 21:31:00,
2014-12-18 16:36:00,32.0,28.8,29.86,West,260,0.0,3.0,88,0.00,,,0.01,Wunderground v.1.15,2014-12-18 21:36:00,
2014-12-18 16:41:00,32.0,28.8,29.87,SW,226,0.0,1.0,88,0.00,,,0.01,Wunderground v.1.15,2014-12-18 21:41:00,
2014-12-18 16:46:00,31.9,29.0,29.87,SW,226,0.0,1.0,89,0.00,,,0.01,Wunderground v.1.15,2014-12-18 21:46:00,
2014-12-18 16:51:00,31.9,29.0,29.87,SW,221,0.0,1.0,89,0.00,,,0.01,Wunderground v.1.15,2014-12-18 21:51:00,
2014-12-18 16:56:00,31.8,29.2,29.87,South,174,0.0,2.0,90,0.00,,,0.01,Wunderground v.1.15,2014-12-18 21:56:00,
2014-12-18 17:01:00,31.8,29.2,29.87,South,176,1.0,3.0,90,0.00,,,0.01,Wunderground v.1.15,2014-12-18 22:01:00,
2014-12-18 17:06:00,31.8,29.2,29.87,South,176,0.0,3.0,90,0.00,,,0.01,Wunderground v.1.15,2014-12-18 22:06:00,
2014-12-18 17:11:00,31.7,28.8,29.87,South,176,0.0,1.0,89,0.00,,,0.01,Wunderground v.1.15,2014-12-18 22:11:00,
2014-12-18 17:16:00,31.7,28.8,29.88,ESE,104,1.0,2.0,89,0.00,,,0.01,Wunderground v.1.15,2014-12-18 22:16:00,
2014-12-18 17:21:00,31.7,28.8,29.88,WSW,255,1.0,2.0,89,0.00,,,0.01,Wunderground v.1.15,2014-12-18 22:21:00,
2014-12-18 17:27:00,31.7,28.6,29.88,ESE,106,0.0,7.0,88,0.00,,,0.01,Wunderground v.1.15,2014-12-18 22:27:00,
2014-12-18 17:31:00,31.7,28.6,29.88,ESE,111,3.0,3.0,88,0.00,,,0.01,Wunderground v.1.15,2014-12-18 22:31:00,
2014-12-18 17:37:00,31.7,28.6,29.88,South,176,1.0,5.0,88,0.00,,,0.01,Wunderground v.1.15,2014-12-18 22:37:00,
2014-12-18 17:42:00,31.7,28.6,29.88,East,89,4.0,4.0,88,0.00,,,0.01,Wunderground v.1.15,2014-12-18 22:42:00,
2014-12-18 17:47:00,31.6,28.5,29.88,SW,221,0.0,4.0,88,0.00,,,0.01,Wunderground v.1.15,2014-12-18 22:47:00,
2014-12-18 17:52:00,31.6,28.5,29.88,South,175,0.0,2.0,88,0.00,,,0.01,Wunderground v.1.15,2014-12-18 22:52:00,
2014-12-18 17:57:00,31.5,28.4,29.88,WSW,242,0.0,3.0,88,0.00,,,0.01,Wunderground v.1.15,2014-12-18 22:57:00,
2014-12-18 18:02:00,31.5,28.6,29.88,South,169,2.0,2.0,89,0.00,,,0.01,Wunderground v.1.15,2014-12-18 23:02:00,
2014-12-18 18:07:00,31.5,28.6,29.89,ESE,117,3.0,3.0,89,0.00,,,0.01,Wunderground v.1.15,2014-12-18 23:07:00,
2014-12-18 18:12:00,31.5,28.4,29.89,South,191,1.0,5.0,88,0.00,,,0.01,Wunderground v.1.15,2014-12-18 23:12:00,
2014-12-18 18:17:00,31.5,28.4,29.89,ESE,123,1.0,5.0,88,0.00,,,0.01,Wunderground v.1.15,2014-12-18 23:17:00,
2014-12-18 18:22:00,31.4,28.3,29.89,West,259,0.0,1.0,88,0.00,,,0.01,Wunderground v.1.15,2014-12-18 23:22:00,
2014-12-18 18:27:00,31.4,28.3,29.89,ESE,112,0.0,3.0,88,0.00,,,0.01,Wunderground v.1.15,2014-12-18 23:27:00,
2014-12-18 18:32:00,31.4,28.3,29.89,South,174,0.0,1.0,88,0.00,,,0.01,Wunderground v.1.15,2014-12-18 23:32:00,
2014-12-18 18:37:00,31.4,28.3,29.90,WSW,241,2.0,4.0,88,0.00,,,0.01,Wunderground v.1.15,2014-12-18 23:37:00,
2014-12-18 18:42:00,31.3,28.2,29.89,East,79,3.0,3.0,88,0.00,,,0.01,Wunderground v.1.15,2014-12-18 23:42:00,
2014-12-18 18:47:00,31.3,28.2,29.90,ESE,105,4.0,6.0,88,0.00,,,0.01,Wunderground v.1.15,2014-12-18 23:47:00,
2014-12-18 18:52:00,31.2,28.3,29.90,SW,228,3.0,4.0,89,0.00,,,0.01,Wunderground v.1.15,2014-12-18 23:52:00,
2014-12-18 18:57:00,31.2,28.1,29.90,SW,214,2.0,4.0,88,0.00,,,0.01,Wunderground v.1.15,2014-12-18 23:57:00,
2014-12-18 19:02:00,31.1,28.0,29.90,WSW,249,1.0,3.0,88,0.00,,,0.01,Wunderground v.1.15,2014-12-19 00:02:00,
2014-12-18 19:07:00,31.1,28.0,29.91,ESE,122,3.0,5.0,88,0.00,,,0.01,Wunderground v.1.15,2014-12-19 00:07:00,
2014-12-18 19:12:00,31.0,27.9,29.91,SW,221,2.0,4.0,88,0.00,,,0.01,Wunderground v.1.15,2014-12-19 00:12:00,
2014-12-18 19:17:00,30.9,28.0,29.91,South,174,0.0,4.0,89,0.00,,,0.01,Wunderground v.1.15,2014-12-19 00:17:00,
2014-12-18 19:22:00,30.8,27.9,29.91,NE,51,2.0,4.0,89,0.00,,,0.01,Wunderground v.1.15,2014-12-19 00:22:00,
2014-12-18 19:27:00,30.7,27.8,29.91,SSW,202,0.0,4.0,89,0.00,,,0.01,Wunderground v.1.15,2014-12-19 00:27:00,
2014-12-18 19:32:00,30.6,27.7,29.91,ESE,113,0.0,3.0,89,0.00,,,0.01,Wunderground v.1.15,2014-12-19 00:32:00,
2014-12-18 19:37:00,30.5,27.6,29.91,South,175,1.0,4.0,89,0.00,,,0.01,Wunderground v.1.15,2014-12-19 00:37:00,
2014-12-18 19:42:00,30.4,27.5,29.91,East,83,1.0,6.0,89,0.00,,,0.01,Wunderground v.1.15,2014-12-19 00:42:00,
2014-12-18 19:47:00,30.3,27.4,29.91,SE,125,3.0,6.0,89,0.00,,,0.01,Wunderground v.1.15,2014-12-19 00:47:00,
2014-12-18 19:52:00,30.3,27.7,29.91,South,175,2.0,3.0,90,0.00,,,0.01,Wunderground v.1.15,2014-12-19 00:52:00,
2014-12-18 19:57:00,30.2,27.3,29.91,East,86,0.0,7.0,89,0.00,,,0.01,Wunderground v.1.15,2014-12-19 00:57:00,
2014-12-18 20:02:00,30.2,27.6,29.91,South,174,2.0,2.0,90,0.00,,,0.01,Wunderground v.1.15,2014-12-19 01:02:00,
2014-12-18 20:07:00,30.2,27.3,29.91,SW,226,4.0,4.0,89,0.00,,,0.01,Wunderground v.1.15,2014-12-19 01:07:00,
2014-12-18 20:12:00,30.2,27.3,29.91,ESE,103,0.0,2.0,89,0.00,,,0.01,Wunderground v.1.15,2014-12-19 01:12:00,
2014-12-18 20:17:00,30.2,27.1,29.91,South,176,0.0,7.0,88,0.00,,,0.01,Wunderground v.1.15,2014-12-19 01:17:00,
2014-12-18 20:22:00,30.1,27.3,29.91,East,79,3.0,3.0,89,0.00,,,0.01,Wunderground v.1.15,2014-12-19 01:22:00,
2014-12-18 20:27:00,30.1,27.3,29.91,East,91,1.0,5.0,89,0.00,,,0.01,Wunderground v.1.15,2014-12-19 01:27:00,
2014-12-18 20:32:00,30.1,27.3,29.91,SSW,207,0.0,2.0,89,0.00,,,0.01,Wunderground v.1.15,2014-12-19 01:32:00,
2014-12-18 20:37:00,30.0,27.2,29.91,South,174,0.0,3.0,89,0.00,,,0.01,Wunderground v.1.15,2014-12-19 01:37:00,
2014-12-18 20:42:00,30.0,27.2,29.91,West,259,1.0,2.0,89,0.00,,,0.01,Wunderground v.1.15,2014-12-19 01:42:00,
2014-12-18 20:47:00,29.9,27.1,29.91,SSW,212,2.0,4.0,89,0.00,,,0.01,Wunderground v.1.15,2014-12-19 01:47:00,
2014-12-18 20:52:00,29.8,27.0,29.91,South,190,1.0,2.0,89,0.00,,,0.01,Wunderground v.1.15,2014-12-19 01:52:00,
2014-12-18 20:57:00,29.8,27.0,29.91,South,176,1.0,4.0,89,0.00,,,0.01,Wunderground v.1.15,2014-12-19 01:57:00,
2014-12-18 21:02:00,29.8,27.0,29.91,ESE,105,0.0,1.0,89,0.00,,,0.01,Wunderground v.1.15,2014-12-19 02:02:00,
2014-12-18 21:07:00,29.7,26.9,29.91,SSE,148,0.0,6.0,89,0.00,,,0.01,Wunderground v.1.15,2014-12-19 02:07:00,
2014-12-18 21:12:00,29.7,26.9,29.91,South,175,0.0,2.0,89,0.00,,,0.01,Wunderground v.1.15,2014-12-19 02:12:00,
2014-12-18 21:17:00,29.7,26.9,29.90,ESE,122,0.0,3.0,89,0.00,,,0.01,Wunderground v.1.15,2014-12-19 02:17:00,
2014-12-18 21:22:00,29.6,26.8,29.91,SSW,198,1.0,3.0,89,0.00,,,0.01,Wunderground v.1.15,2014-12-19 02:22:00,
2014-12-18 21:27:00,29.5,26.7,29.91,SE,125,0.0,4.0,89,0.00,,,0.01,Wunderground v.1.15,2014-12-19 02:27:00,
2014-12-18 21:32:00,29.5,26.7,29.91,ESE,108,1.0,4.0,89,0.00,,,0.01,Wunderground v.1.15,2014-12-19 02:32:00,
2014-12-18 21:37:00,29.4,26.6,29.90,West,276,1.0,4.0,89,0.00,,,0.01,Wunderground v.1.15,2014-12-19 02:37:00,
2014-12-18 21:42:00,29.3,26.5,29.91,ESE,106,1.0,4.0,89,0.00,,,0.01,Wunderground v.1.15,2014-12-19 02:42:00,
2014-12-18 21:47:00,29.2,26.4,29.91,NNW,328,1.0,10.0,89,0.00,,,0.01,Wunderground v.1.15,2014-12-19 02:47:00,
2014-12-18 21:52:00,29.1,26.3,29.91,East,92,3.0,3.0,89,0.00,,,0.01,Wunderground v.1.15,2014-12-19 02:52:00,
2014-12-18 21:57:00,29.1,26.3,29.91,South,174,1.0,5.0,89,0.00,,,0.01,Wunderground v.1.15,2014-12-19 02:57:00,
2014-12-18 22:02:00,29.0,26.2,29.91,South,175,2.0,2.0,89,0.00,,,0.01,Wunderground v.1.15,2014-12-19 03:02:00,
2014-12-18 22:07:00,29.0,26.2,29.92,South,174,1.0,2.0,89,0.00,,,0.01,Wunderground v.1.15,2014-12-19 03:07:00,
2014-12-18 22:12:00,29.1,26.5,29.92,South,174,0.0,2.0,90,0.00,,,0.01,Wunderground v.1.15,2014-12-19 03:12:00,
2014-12-18 22:17:00,29.1,26.3,29.92,South,174,0.0,2.0,89,0.00,,,0.01,Wunderground v.1.15,2014-12-19 03:17:00,
2014-12-18 22:22:00,29.1,26.5,29.91,South,175,0.0,2.0,90,0.00,,,0.01,Wunderground v.1.15,2014-12-19 03:22:00,
2014-12-18 22:27:00,29.1,26.5,29.91,South,174,2.0,2.0,90,0.00,,,0.01,Wunderground v.1.15,2014-12-19 03:27:00,
2014-12-18 22:32:00,29.1,26.3,29.91,South,175,0.0,1.0,89,0.00,,,0.01,Wunderground v.1.15,2014-12-19 03:32:00,
2014-12-18 22:37:00,29.1,26.3,29.91,South,175,1.0,2.0,89,0.00,,,0.01,Wunderground v.1.15,2014-12-19 03:37:00,
2014-12-18 22:42:00,29.0,26.2,29.91,South,174,0.0,1.0,89,0.00,,,0.01,Wunderground v.1.15,2014-12-19 03:42:00,
2014-12-18 22:47:00,29.0,26.2,29.92,South,174,0.0,1.0,89,0.00,,,0.01,Wunderground v.1.15,2014-12-19 03:47:00,
2014-12-18 22:52:00,29.1,26.5,29.92,South,174,0.0,0.0,90,0.00,,,0.01,Wunderground v.1.15,2014-12-19 03:52:00,
2014-12-18 22:57:00,29.1,26.5,29.92,South,174,0.0,3.0,90,0.00,,,0.01,Wunderground v.1.15,2014-12-19 03:57:00,
2014-12-18 23:02:00,29.0,26.4,29.92,South,174,1.0,1.0,90,0.00,,,0.01,Wunderground v.1.15,2014-12-19 04:02:00,
2014-12-18 23:07:00,28.9,26.3,29.92,South,175,0.0,3.0,90,0.00,,,0.01,Wunderground v.1.15,2014-12-19 04:07:00,
2014-12-18 23:12:00,28.9,26.3,29.92,South,173,0.0,1.0,90,0.00,,,0.01,Wunderground v.1.15,2014-12-19 04:12:00,
2014-12-18 23:17:00,28.9,26.3,29.92,South,176,0.0,1.0,90,0.00,,,0.01,Wunderground v.1.15,2014-12-19 04:17:00,
2014-12-18 23:22:00,28.9,26.3,29.92,South,176,1.0,2.0,90,0.00,,,0.01,Wunderground v.1.15,2014-12-19 04:22:00,